Time;durP1;ratioP1;P1;durP2;ratioP2;P2;SDS_P1;SDS_P2;PMS_P1;PMS_P2;Temp;Humidity;BMP_temperature;BMP_pressure;BME280_temperature;BME280_humidity;BME280_pressure;Samples;Min_cycle;Max_cycle;Signal;HPM_P1;HPM_P2
2022/04/09 00:00:42;;;;;;;25.30;5.43;;;13.30;99.90;;;;;;4885965;29;20080;-90
2022/04/09 00:03:10;;;;;;;21.23;4.63;;;13.40;99.90;;;;;;4886405;29;20443;-91
2022/04/09 00:05:36;;;;;;;17.05;4.30;;;13.40;99.90;;;;;;4869937;29;20049;-90
2022/04/09 00:08:03;;;;;;;17.70;4.25;;;13.40;99.90;;;;;;4882554;29;20033;-89
2022/04/09 00:10:30;;;;;;;16.00;5.22;;;13.50;99.90;;;;;;4882618;29;20028;-90
2022/04/09 00:12:56;;;;;;;12.43;4.53;;;13.50;99.90;;;;;;4883010;29;20040;-89
2022/04/09 00:15:23;;;;;;;20.23;5.45;;;13.50;99.90;;;;;;4882832;29;20394;-90
2022/04/09 00:17:50;;;;;;;24.33;5.85;;;13.50;99.90;;;;;;4882805;29;20028;-89
2022/04/09 00:20:19;;;;;;;28.65;7.13;;;13.50;99.90;;;;;;4868124;29;20036;-90
2022/04/09 00:22:46;;;;;;;23.00;5.43;;;13.60;99.90;;;;;;4885498;29;20040;-90
2022/04/09 00:25:21;;;;;;;24.83;5.28;;;13.60;99.90;;;;;;4891841;29;20033;-90
2022/04/09 00:27:48;;;;;;;18.52;5.35;;;13.60;99.90;;;;;;4882394;29;20039;-90
2022/04/09 00:30:16;;;;;;;15.40;4.57;;;13.60;99.90;;;;;;4882292;29;20032;-89
2022/04/09 00:32:43;;;;;;;31.60;4.95;;;13.70;99.90;;;;;;4882278;29;20056;-90
2022/04/09 00:35:10;;;;;;;22.52;6.05;;;13.70;99.90;;;;;;4882358;29;20112;-90
2022/04/09 00:37:46;;;;;;;26.83;5.57;;;13.70;99.90;;;;;;4882201;29;20499;-91
2022/04/09 00:40:20;;;;;;;16.60;5.03;;;13.70;99.90;;;;;;4882349;29;20478;-90
2022/04/09 00:42:47;;;;;;;15.23;4.60;;;13.70;99.90;;;;;;4882069;29;20041;-91
2022/04/09 00:45:14;;;;;;;18.85;4.30;;;13.80;99.90;;;;;;4882093;29;20028;-90
2022/04/09 00:47:41;;;;;;;18.05;4.38;;;13.80;99.90;;;;;;4882085;29;20497;-90
2022/04/09 00:50:10;;;;;;;17.75;5.00;;;13.80;99.90;;;;;;4882390;29;20037;-91
2022/04/09 00:52:50;;;;;;;21.65;5.85;;;13.80;99.90;;;;;;4882734;29;20044;-90
2022/04/09 00:58:14;;;;;;;20.90;5.45;;;13.80;99.90;;;;;;4882290;29;20043;-91
2022/04/09 01:00:42;;;;;;;9.68;3.90;;;13.80;99.90;;;;;;4881955;29;20037;-90
2022/04/09 01:03:18;;;;;;;23.00;3.53;;;13.80;99.90;;;;;;4882389;29;20036;-90
2022/04/09 01:05:49;;;;;;;32.42;6.03;;;13.80;99.90;;;;;;4902084;29;20498;-90
2022/04/09 01:08:16;;;;;;;22.52;5.45;;;13.80;99.90;;;;;;4904195;29;20119;-90
2022/04/09 01:10:52;;;;;;;15.90;4.80;;;13.80;99.90;;;;;;4904380;29;20028;-90
2022/04/09 01:13:28;;;;;;;19.92;5.00;;;13.80;99.90;;;;;;4905234;29;20083;-91
2022/04/09 01:15:55;;;;;;;15.02;3.78;;;13.80;99.90;;;;;;4903956;29;20032;-90
2022/04/09 01:18:26;;;;;;;26.13;3.72;;;13.80;99.90;;;;;;4903931;29;20039;-90
2022/04/09 01:21:03;;;;;;;21.38;5.18;;;13.80;99.90;;;;;;4889427;29;20024;-91
2022/04/09 01:23:31;;;;;;;15.70;4.80;;;13.80;99.90;;;;;;4903807;29;20123;-90
2022/04/09 01:26:01;;;;;;;25.42;4.32;;;13.80;99.90;;;;;;4888790;29;20390;-92
2022/04/09 01:28:29;;;;;;;52.10;5.88;;;13.80;99.90;;;;;;4903931;29;20039;-91
2022/04/09 01:30:56;;;;;;;22.85;3.75;;;13.80;99.90;;;;;;4903682;29;20075;-90
2022/04/09 01:33:24;;;;;;;10.75;3.60;;;13.80;99.90;;;;;;4903610;29;20486;-90
2022/04/09 01:35:51;;;;;;;18.52;6.00;;;13.80;99.90;;;;;;4903573;29;20024;-90
2022/04/09 01:38:20;;;;;;;13.73;4.57;;;13.80;99.90;;;;;;4903702;29;20036;-90
2022/04/09 01:40:47;;;;;;;14.32;5.45;;;13.80;99.90;;;;;;4903505;29;20422;-90
2022/04/09 01:43:14;;;;;;;12.23;4.13;;;13.80;99.90;;;;;;4904296;29;20032;-92
2022/04/09 01:45:41;;;;;;;17.13;3.75;;;13.70;99.90;;;;;;4903579;29;20028;-91
2022/04/09 01:48:18;;;;;;;10.65;4.40;;;13.70;99.90;;;;;;4903340;29;20024;-90
2022/04/09 01:50:46;;;;;;;16.88;4.60;;;13.70;99.90;;;;;;4903368;29;20036;-91
2022/04/09 01:53:15;;;;;;;28.40;6.15;;;13.70;99.90;;;;;;4903752;29;20036;-91
2022/04/09 01:55:44;;;;;;;14.05;4.60;;;13.70;99.90;;;;;;4903371;29;20039;-90
2022/04/09 01:58:13;;;;;;;19.35;3.95;;;13.70;99.90;;;;;;4887918;29;20430;-90
2022/04/09 02:00:44;;;;;;;18.67;5.05;;;13.70;99.90;;;;;;4903505;29;20036;-92
2022/04/09 02:03:10;;;;;;;15.00;4.25;;;13.70;99.90;;;;;;4904578;29;20501;-91
2022/04/09 02:05:37;;;;;;;14.88;4.00;;;13.70;99.90;;;;;;4903563;29;20049;-92
2022/04/09 02:08:04;;;;;;;26.23;5.68;;;13.60;99.90;;;;;;4903460;29;20043;-91
2022/04/09 02:10:33;;;;;;;10.23;3.08;;;13.60;99.90;;;;;;4903253;29;20030;-90
2022/04/09 02:13:04;;;;;;;12.30;4.68;;;13.60;99.90;;;;;;4903405;29;20070;-90
2022/04/09 02:15:31;;;;;;;19.85;4.68;;;13.50;99.90;;;;;;4903073;29;20091;-91
2022/04/09 02:17:58;;;;;;;19.42;4.85;;;13.50;99.90;;;;;;4906637;29;20063;-91
2022/04/09 02:20:26;;;;;;;20.60;5.00;;;13.50;99.90;;;;;;4915597;29;20059;-92
2022/04/09 02:22:53;;;;;;;17.20;4.03;;;13.50;99.90;;;;;;4903046;29;20398;-92
2022/04/09 02:25:19;;;;;;;11.20;3.40;;;13.50;99.90;;;;;;4887187;29;20072;-91
2022/04/09 02:27:47;;;;;;;12.75;4.03;;;13.50;99.90;;;;;;4902755;29;20397;-91
2022/04/09 02:30:20;;;;;;;32.85;4.95;;;13.50;99.90;;;;;;4902596;29;20032;-91
2022/04/09 02:32:54;;;;;;;11.50;3.08;;;13.40;99.90;;;;;;4887996;29;20040;-91
2022/04/09 02:35:28;;;;;;;18.65;4.47;;;13.40;99.90;;;;;;4902459;29;20043;-91
2022/04/09 02:37:57;;;;;;;13.88;4.05;;;13.30;99.90;;;;;;4902783;29;20047;-91
2022/04/09 02:40:26;;;;;;;23.38;5.15;;;13.30;99.90;;;;;;4902481;29;20052;-90
2022/04/09 02:42:53;;;;;;;21.30;4.18;;;13.30;99.90;;;;;;4902187;29;20071;-92
2022/04/09 02:45:21;;;;;;;11.93;4.32;;;13.30;99.90;;;;;;4903115;29;20516;-91
2022/04/09 02:47:48;;;;;;;21.98;4.32;;;13.30;99.90;;;;;;4902298;29;20032;-91
2022/04/09 02:50:19;;;;;;;12.60;4.43;;;13.30;99.90;;;;;;4887798;29;20060;-92
2022/04/09 02:52:48;;;;;;;13.50;4.85;;;13.30;99.90;;;;;;4902974;29;20067;-91
2022/04/09 02:55:16;;;;;;;11.02;5.15;;;13.30;99.90;;;;;;4902813;29;20032;-90
2022/04/09 02:57:44;;;;;;;33.42;5.55;;;13.30;99.90;;;;;;4886891;29;20083;-91
2022/04/09 03:00:13;;;;;;;17.95;5.80;;;13.30;99.90;;;;;;4902017;29;20054;-91
2022/04/09 03:02:43;;;;;;;11.48;5.40;;;13.30;99.90;;;;;;4902019;29;20115;-90
2022/04/09 03:05:19;;;;;;;26.80;5.15;;;13.30;99.90;;;;;;4887354;29;20048;-91
2022/04/09 03:07:46;;;;;;;13.38;4.38;;;13.40;99.90;;;;;;4902019;29;20092;-92
2022/04/09 03:10:12;;;;;;;23.60;5.40;;;13.40;99.90;;;;;;4886401;29;20024;-91
2022/04/09 03:12:43;;;;;;;20.98;4.85;;;13.40;99.90;;;;;;4901742;29;20036;-91
2022/04/09 03:15:10;;;;;;;23.10;4.80;;;13.40;99.90;;;;;;4901954;29;20032;-89
2022/04/09 03:17:37;;;;;;;20.75;4.63;;;13.50;99.90;;;;;;4886525;29;20561;-90
2022/04/09 03:20:06;;;;;;;26.58;5.43;;;13.50;99.90;;;;;;4886476;29;20060;-88
2022/04/09 03:22:48;;;;;;;13.77;4.93;;;13.60;99.90;;;;;;4902859;29;20455;-87
2022/04/09 03:25:22;;;;;;;21.73;5.22;;;13.60;99.90;;;;;;4901692;29;20032;-91
2022/04/09 03:27:53;;;;;;;14.75;5.18;;;13.60;99.90;;;;;;4901617;29;20043;-89
2022/04/09 03:30:20;;;;;;;22.45;4.82;;;13.50;99.90;;;;;;4901775;29;20032;-89
2022/04/09 03:32:52;;;;;;;11.43;3.42;;;13.50;99.90;;;;;;4886994;29;20032;-90
2022/04/09 03:35:25;;;;;;;10.80;4.22;;;13.40;99.90;;;;;;4901668;29;20043;-89
2022/04/09 03:37:57;;;;;;;10.57;4.68;;;13.40;99.90;;;;;;4901863;29;20039;-88
2022/04/09 03:40:39;;;;;;;16.42;6.43;;;13.40;99.90;;;;;;4901918;29;20036;-91
2022/04/09 03:43:07;;;;;;;13.95;4.63;;;13.40;99.90;;;;;;4902662;29;20036;-89
2022/04/09 03:45:34;;;;;;;17.35;5.88;;;13.30;99.90;;;;;;4885890;29;20051;-88
2022/04/09 03:48:07;;;;;;;22.27;4.68;;;13.30;99.90;;;;;;4901463;29;20036;-89
2022/04/09 03:50:37;;;;;;;16.17;4.63;;;13.30;99.90;;;;;;4901738;29;20040;-91
2022/04/09 03:53:06;;;;;;;18.80;4.60;;;13.30;99.90;;;;;;4901229;29;20214;-89
2022/04/09 03:55:33;;;;;;;21.65;6.45;;;13.30;99.90;;;;;;4885956;29;20024;-89
2022/04/09 03:58:02;;;;;;;17.30;4.65;;;13.30;99.90;;;;;;4901315;29;20032;-89
2022/04/09 04:00:30;;;;;;;22.35;5.75;;;13.30;99.90;;;;;;4901216;29;20032;-88
2022/04/09 04:03:00;;;;;;;16.33;6.07;;;13.20;99.90;;;;;;4886155;29;20470;-87
2022/04/09 04:05:30;;;;;;;20.58;6.97;;;13.20;99.90;;;;;;4885979;29;20580;-88
2022/04/09 04:07:57;;;;;;;12.02;4.38;;;13.20;99.90;;;;;;4901407;29;20032;-88
2022/04/09 04:10:24;;;;;;;18.85;6.03;;;13.20;99.90;;;;;;4901835;29;20116;-87
2022/04/09 04:13:05;;;;;;;18.77;6.55;;;13.20;99.90;;;;;;4902815;29;20036;-89
2022/04/09 04:15:34;;;;;;;16.65;6.97;;;13.10;99.90;;;;;;4880343;29;20033;-91
2022/04/09 04:18:02;;;;;;;25.02;7.07;;;13.10;99.90;;;;;;4848000;29;20040;-92
2022/04/09 04:20:33;;;;;;;16.63;5.60;;;13.10;99.90;;;;;;4849425;29;20081;-88
2022/04/09 04:23:03;;;;;;;16.92;5.45;;;13.00;99.90;;;;;;4848041;29;20053;-87
2022/04/09 04:25:30;;;;;;;19.20;6.93;;;12.90;99.90;;;;;;4847965;29;20606;-87
2022/04/09 04:27:59;;;;;;;23.48;7.55;;;13.00;99.90;;;;;;4848293;29;20081;-88
2022/04/09 04:30:28;;;;;;;19.70;6.45;;;13.00;99.90;;;;;;4848648;29;20548;-87
2022/04/09 04:32:57;;;;;;;27.50;6.75;;;13.00;99.90;;;;;;4848273;29;20154;-88
2022/04/09 04:35:52;;;;;;;41.70;7.88;;;13.00;99.90;;;;;;4793874;29;20439;-88
2022/04/09 04:38:23;;;;;;;24.42;6.15;;;13.00;99.90;;;;;;4790273;29;20062;-88
2022/04/09 04:40:53;;;;;;;22.10;6.05;;;13.00;99.90;;;;;;4793653;29;20042;-88
2022/04/09 04:43:22;;;;;;;20.88;6.57;;;13.00;99.90;;;;;;4793826;29;20555;-88
2022/04/09 04:45:49;;;;;;;20.58;6.43;;;13.10;99.90;;;;;;4793604;29;20039;-87
2022/04/09 04:48:16;;;;;;;26.02;7.63;;;13.10;99.90;;;;;;4793502;29;20099;-87
2022/04/09 04:50:43;;;;;;;15.02;6.53;;;13.10;99.90;;;;;;4793386;29;20083;-87
2022/04/09 04:53:13;;;;;;;19.58;6.40;;;13.10;99.90;;;;;;4804712;29;20050;-88
2022/04/09 04:55:46;;;;;;;30.88;8.55;;;13.10;99.90;;;;;;4811377;29;20493;-88
2022/04/09 04:58:19;;;;;;;22.15;7.38;;;13.20;99.90;;;;;;4796540;29;20034;-87
2022/04/09 05:01:07;;;;;;;22.05;6.22;;;13.20;99.90;;;;;;4813974;29;20133;-86
2022/04/09 05:03:39;;;;;;;25.50;6.15;;;13.30;99.90;;;;;;4825635;29;20034;-89
2022/04/09 05:06:24;;;;;;;19.17;6.65;;;13.30;99.90;;;;;;4813963;29;20588;-87
2022/04/09 05:08:56;;;;;;;37.50;8.55;;;13.40;99.90;;;;;;4825871;29;20045;-89
2022/04/09 05:11:34;;;;;;;14.45;6.47;;;13.50;99.90;;;;;;4845763;29;20497;-89
2022/04/09 05:14:07;;;;;;;12.82;6.38;;;13.50;99.90;;;;;;4904043;29;20533;-88
2022/04/09 05:16:38;;;;;;;23.73;6.78;;;13.70;99.90;;;;;;4904335;29;20107;-87
2022/04/09 05:19:10;;;;;;;18.13;6.40;;;13.80;99.90;;;;;;4904259;29;20511;-88
2022/04/09 05:21:41;;;;;;;20.95;6.68;;;13.90;99.90;;;;;;4889569;29;20187;-88
2022/04/09 05:24:08;;;;;;;22.15;6.80;;;13.90;99.90;;;;;;4903706;29;20410;-88
2022/04/09 05:26:35;;;;;;;15.80;5.22;;;14.00;99.90;;;;;;4903744;29;20434;-88
2022/04/09 05:29:05;;;;;;;19.60;5.50;;;14.00;99.90;;;;;;4903799;29;20394;-89
2022/04/09 05:31:32;;;;;;;17.98;4.53;;;14.10;99.90;;;;;;4888062;29;20040;-87
2022/04/09 05:33:58;;;;;;;18.55;4.65;;;14.20;99.90;;;;;;4903804;29;20028;-87
2022/04/09 05:36:31;;;;;;;18.83;6.32;;;14.30;99.90;;;;;;4905723;29;20024;-89
2022/04/09 05:39:02;;;;;;;22.63;6.30;;;14.50;99.90;;;;;;4903702;29;20035;-87
2022/04/09 05:41:31;;;;;;;17.13;5.03;;;14.70;99.90;;;;;;4904490;29;20028;-88
2022/04/09 05:43:59;;;;;;;15.15;4.88;;;14.90;99.90;;;;;;4903616;29;20028;-89
2022/04/09 05:46:29;;;;;;;17.00;5.75;;;15.00;99.90;;;;;;4904092;29;20508;-88
2022/04/09 05:48:56;;;;;;;14.75;4.30;;;15.20;99.90;;;;;;4903525;29;20063;-89
2022/04/09 05:51:24;;;;;;;14.55;3.72;;;15.30;99.90;;;;;;4902936;29;20056;-89
2022/04/09 05:53:55;;;;;;;19.30;3.95;;;15.30;99.90;;;;;;4889241;29;20028;-88
2022/04/09 05:56:25;;;;;;;19.10;4.00;;;15.30;99.90;;;;;;4903420;29;20044;-87
2022/04/09 05:58:52;;;;;;;11.27;3.00;;;15.40;99.90;;;;;;4903165;29;20039;-89
2022/04/09 06:01:18;;;;;;;18.00;5.13;;;15.30;99.90;;;;;;4903741;29;20059;-88
2022/04/09 06:03:47;;;;;;;16.08;3.90;;;15.40;99.90;;;;;;4918575;29;20032;-87
2022/04/09 06:06:15;;;;;;;9.20;3.30;;;15.60;99.90;;;;;;4888030;29;20470;-88
2022/04/09 06:08:50;;;;;;;14.32;4.30;;;15.50;99.90;;;;;;4889114;29;20032;-88
2022/04/09 06:11:47;;;;;;;13.70;3.47;;;15.60;99.90;;;;;;4892217;29;20048;-89
2022/04/09 06:14:19;;;;;;;8.98;3.55;;;15.60;99.90;;;;;;4888637;29;20074;-88
2022/04/09 06:16:48;;;;;;;20.30;3.25;;;15.70;99.90;;;;;;4887580;29;20040;-90
2022/04/09 06:19:15;;;;;;;17.35;4.03;;;15.90;99.90;;;;;;4887367;29;20052;-89
2022/04/09 06:21:43;;;;;;;20.55;3.20;;;16.10;99.90;;;;;;4887295;29;20039;-89
2022/04/09 06:24:13;;;;;;;12.60;2.10;;;16.20;99.90;;;;;;4887456;29;20028;-88
2022/04/09 06:26:44;;;;;;;9.70;3.10;;;16.10;99.90;;;;;;4887390;29;20070;-88
2022/04/09 06:29:11;;;;;;;8.32;2.13;;;16.10;99.90;;;;;;4887316;29;20063;-89
2022/04/09 06:31:40;;;;;;;5.50;2.05;;;16.00;99.90;;;;;;4887409;29;20064;-87
2022/04/09 06:34:07;;;;;;;9.65;2.10;;;16.20;99.90;;;;;;4887181;29;20039;-89
2022/04/09 06:36:37;;;;;;;12.88;3.10;;;16.30;99.90;;;;;;4887434;29;20032;-87
2022/04/09 06:39:03;;;;;;;15.25;2.50;;;16.50;99.90;;;;;;4887177;29;20083;-90
2022/04/09 06:41:36;;;;;;;8.77;2.78;;;16.50;99.90;;;;;;4888058;29;20032;-90
2022/04/09 06:44:06;;;;;;;11.57;2.83;;;16.90;99.90;;;;;;4887038;29;20032;-87
2022/04/09 06:46:43;;;;;;;5.63;2.47;;;17.00;99.90;;;;;;4888233;29;20054;-87
2022/04/09 06:49:16;;;;;;;10.27;2.20;;;17.30;99.90;;;;;;4887445;29;20417;-89
2022/04/09 06:51:48;;;;;;;5.57;1.67;;;17.50;99.90;;;;;;4903255;29;20039;-86
2022/04/09 06:54:28;;;;;;;5.38;1.67;;;17.70;99.90;;;;;;4889092;29;20091;-88
2022/04/09 06:56:55;;;;;;;6.10;3.60;;;17.90;99.90;;;;;;4886626;29;20028;-89
2022/04/09 06:59:24;;;;;;;3.85;1.70;;;18.10;99.90;;;;;;4887498;29;20034;-88
2022/04/09 07:01:54;;;;;;;6.78;2.42;;;18.20;99.90;;;;;;4887431;29;20035;-89
2022/04/09 07:04:21;;;;;;;12.00;3.75;;;18.30;99.90;;;;;;4886878;29;20056;-88
2022/04/09 07:06:47;;;;;;;11.70;2.53;;;18.40;99.90;;;;;;4886427;29;20095;-89
2022/04/09 07:09:14;;;;;;;13.13;3.20;;;18.10;99.90;;;;;;4886412;29;20490;-87
2022/04/09 07:11:41;;;;;;;7.55;1.60;;;18.20;99.90;;;;;;4887354;29;20036;-88
2022/04/09 07:14:10;;;;;;;12.20;1.67;;;18.40;99.90;;;;;;4889578;29;20060;-88
2022/04/09 07:16:39;;;;;;;5.82;2.03;;;19.00;99.90;;;;;;4889726;29;20032;-89
2022/04/09 07:19:10;;;;;;;6.13;1.98;;;19.10;99.90;;;;;;4889110;29;20064;-89
2022/04/09 07:21:37;;;;;;;7.25;3.25;;;19.30;99.90;;;;;;4888122;29;20032;-89
2022/04/09 07:24:04;;;;;;;9.77;2.33;;;19.00;99.90;;;;;;4890102;29;20028;-89
2022/04/09 07:26:31;;;;;;;10.40;1.92;;;18.60;99.90;;;;;;4890811;29;20028;-90
2022/04/09 07:28:57;;;;;;;6.18;1.75;;;18.80;99.90;;;;;;4889061;29;20497;-89
2022/04/09 07:31:24;;;;;;;9.93;2.25;;;18.90;99.90;;;;;;4890627;29;20043;-91
2022/04/09 07:33:51;;;;;;;7.70;2.72;;;19.20;99.90;;;;;;4890278;29;20055;-89
2022/04/09 07:36:20;;;;;;;5.38;1.50;;;19.30;99.90;;;;;;4892895;29;20024;-89
2022/04/09 07:38:56;;;;;;;9.30;2.38;;;20.10;99.90;;;;;;4892510;29;20063;-90
2022/04/09 07:41:22;;;;;;;9.98;1.58;;;20.80;99.90;;;;;;4889961;29;20060;-87
2022/04/09 07:43:49;;;;;;;11.95;1.58;;;21.20;99.90;;;;;;4886949;29;20028;-87
2022/04/09 07:46:15;;;;;;;6.90;2.08;;;21.40;99.90;;;;;;4887932;29;20032;-87
2022/04/09 07:48:42;;;;;;;8.63;2.17;;;21.50;99.90;;;;;;4888512;29;20080;-86
2022/04/09 07:51:09;;;;;;;10.23;2.42;;;21.70;99.90;;;;;;4888925;29;20051;-85
2022/04/09 07:53:35;;;;;;;12.20;1.92;;;21.60;99.90;;;;;;4889829;29;20036;-87
2022/04/09 07:56:02;;;;;;;2.90;1.85;;;21.70;99.90;;;;;;4886434;29;20028;-89
2022/04/09 07:58:30;;;;;;;9.32;2.42;;;21.80;99.90;;;;;;4885865;29;20032;-88
2022/04/09 08:00:57;;;;;;;12.60;2.63;;;21.70;99.90;;;;;;4885930;29;20032;-87
2022/04/09 08:03:23;;;;;;;10.95;2.83;;;22.10;99.90;;;;;;4885809;29;20040;-87
2022/04/09 08:05:50;;;;;;;6.40;2.42;;;21.10;99.90;;;;;;4886716;29;20060;-87
2022/04/09 08:08:17;;;;;;;9.95;2.15;;;20.70;99.90;;;;;;4903847;29;20064;-85
2022/04/09 08:10:44;;;;;;;8.70;2.25;;;21.10;99.90;;;;;;4886340;29;20028;-85
2022/04/09 08:13:11;;;;;;;16.42;2.80;;;20.80;99.90;;;;;;4902457;29;20040;-85
2022/04/09 08:15:39;;;;;;;9.82;1.88;;;20.00;99.90;;;;;;4907488;29;20590;-86
2022/04/09 08:18:06;;;;;;;14.80;2.47;;;20.00;99.90;;;;;;4907590;29;20598;-85
2022/04/09 08:20:37;;;;;;;9.10;2.45;;;20.10;99.90;;;;;;4891907;29;20020;-85
2022/04/09 08:23:05;;;;;;;10.30;2.83;;;20.00;99.90;;;;;;4908370;29;20032;-85
2022/04/09 08:25:31;;;;;;;6.10;3.25;;;20.00;99.90;;;;;;4908856;29;20030;-85
2022/04/09 08:28:00;;;;;;;8.77;2.28;;;19.60;99.90;;;;;;4905938;29;20036;-89
2022/04/09 08:30:29;;;;;;;7.57;2.10;;;19.50;99.90;;;;;;4891008;29;20114;-87
2022/04/09 08:32:57;;;;;;;12.20;3.33;;;19.30;99.90;;;;;;4905862;29;20442;-87
2022/04/09 08:35:24;;;;;;;7.75;1.88;;;19.60;99.90;;;;;;4890496;29;20030;-89
2022/04/09 08:37:55;;;;;;;3.95;1.65;;;19.80;99.90;;;;;;4906705;29;20397;-90
2022/04/09 08:40:23;;;;;;;6.00;1.83;;;20.10;99.90;;;;;;4906599;29;20035;-86
2022/04/09 08:42:51;;;;;;;5.47;2.13;;;20.40;99.90;;;;;;4890348;29;20036;-86
2022/04/09 08:45:21;;;;;;;8.98;2.95;;;20.60;99.90;;;;;;4905649;29;20036;-86
2022/04/09 08:47:48;;;;;;;6.70;2.10;;;20.50;99.90;;;;;;4905678;29;20036;-86
2022/04/09 08:50:16;;;;;;;10.50;2.80;;;20.70;99.90;;;;;;4889894;29;20024;-85
2022/04/09 08:52:44;;;;;;;4.43;1.80;;;20.70;99.90;;;;;;4889643;29;20043;-87
2022/04/09 08:55:13;;;;;;;12.48;2.30;;;20.90;99.90;;;;;;4905578;29;20035;-85
2022/04/09 08:57:41;;;;;;;7.63;2.22;;;20.60;99.90;;;;;;4905525;29;20111;-85
2022/04/09 09:00:13;;;;;;;6.95;1.30;;;20.30;99.90;;;;;;4904980;29;20028;-85
2022/04/09 09:02:51;;;;;;;8.95;3.40;;;20.00;99.90;;;;;;4905269;29;20032;-85
2022/04/09 09:05:38;;;;;;;8.93;2.85;;;19.90;99.90;;;;;;4904657;29;20518;-86
2022/04/09 09:08:07;;;;;;;12.23;2.38;;;19.50;99.90;;;;;;4905262;29;20039;-85
2022/04/09 09:10:35;;;;;;;9.10;2.22;;;19.20;99.90;;;;;;4905761;29;20443;-84
2022/04/09 09:13:12;;;;;;;8.30;3.63;;;18.90;99.90;;;;;;4906545;29;20119;-85
2022/04/09 09:15:53;;;;;;;9.43;2.08;;;18.70;99.90;;;;;;4909698;29;20503;-88
2022/04/09 09:18:22;;;;;;;11.13;2.38;;;18.60;99.90;;;;;;4907645;29;20036;-88
2022/04/09 09:21:00;;;;;;;6.47;1.73;;;18.60;99.90;;;;;;4906112;29;20032;-88
2022/04/09 09:23:32;;;;;;;8.02;2.45;;;18.50;99.90;;;;;;4903933;29;20111;-90
2022/04/09 09:26:03;;;;;;;9.32;2.25;;;18.50;99.90;;;;;;4904251;29;20035;-89
2022/04/09 09:28:33;;;;;;;15.93;2.97;;;18.30;99.90;;;;;;4904640;29;20119;-88
2022/04/09 09:31:02;;;;;;;11.10;1.75;;;18.30;99.90;;;;;;4904769;29;20032;-89
2022/04/09 09:33:36;;;;;;;9.40;3.33;;;18.30;99.90;;;;;;4903445;29;20044;-90
2022/04/09 09:36:04;;;;;;;8.27;2.38;;;18.30;99.90;;;;;;4903850;29;20107;-90
2022/04/09 09:38:34;;;;;;;8.68;2.70;;;18.30;99.90;;;;;;4903719;29;20569;-89
2022/04/09 09:41:03;;;;;;;13.63;3.47;;;18.30;99.90;;;;;;4903455;29;20060;-90
2022/04/09 09:43:33;;;;;;;10.57;2.13;;;18.40;99.90;;;;;;4887980;29;20111;-90
2022/04/09 09:46:01;;;;;;;6.70;1.98;;;18.40;99.90;;;;;;4903558;29;20033;-89
2022/04/09 09:48:35;;;;;;;13.40;3.05;;;18.50;99.90;;;;;;4903452;29;20036;-89
2022/04/09 09:51:05;;;;;;;16.42;2.22;;;18.60;99.90;;;;;;4903387;29;20029;-89
2022/04/09 09:53:37;;;;;;;10.20;2.42;;;18.50;99.90;;;;;;4887858;29;20044;-90
2022/04/09 09:56:04;;;;;;;16.10;2.88;;;18.50;99.90;;;;;;4903342;29;20028;-89
2022/04/09 09:58:32;;;;;;;8.70;1.88;;;18.50;99.90;;;;;;4903458;29;20051;-89
2022/04/09 10:00:59;;;;;;;6.65;2.35;;;18.60;99.90;;;;;;4903907;29;20039;-90
2022/04/09 10:03:27;;;;;;;6.90;2.25;;;18.70;99.90;;;;;;4903210;29;20032;-89
2022/04/09 10:05:54;;;;;;;3.88;1.42;;;18.70;99.90;;;;;;4902893;29;20062;-89
2022/04/09 10:08:21;;;;;;;9.13;2.03;;;18.70;99.90;;;;;;4903445;29;20087;-89
2022/04/09 10:10:51;;;;;;;12.75;1.85;;;18.70;99.90;;;;;;4903491;29;20039;-89
2022/04/09 10:13:25;;;;;;;7.82;1.45;;;18.80;99.90;;;;;;4902979;29;20493;-90
2022/04/09 10:15:53;;;;;;;8.30;2.35;;;18.90;99.90;;;;;;4903643;29;20063;-91
2022/04/09 10:18:24;;;;;;;9.00;1.30;;;19.00;99.90;;;;;;4903281;29;20028;-90
2022/04/09 10:20:59;;;;;;;13.05;1.70;;;19.00;99.90;;;;;;4903907;29;20084;-89
2022/04/09 10:23:32;;;;;;;9.05;2.33;;;19.10;99.90;;;;;;4904537;29;20090;-91
2022/04/09 10:26:04;;;;;;;6.93;1.85;;;19.10;99.90;;;;;;4908924;29;20119;-89
2022/04/09 10:28:38;;;;;;;10.65;2.10;;;19.10;99.90;;;;;;4909749;29;20030;-91
2022/04/09 10:31:23;;;;;;;13.77;2.13;;;19.20;99.90;;;;;;4908994;29;20021;-90
2022/04/09 10:33:58;;;;;;;5.72;1.67;;;19.10;99.90;;;;;;4911606;29;20047;-90
2022/04/09 10:36:51;;;;;;;8.95;1.85;;;19.00;99.90;;;;;;4908539;29;20453;-90
2022/04/09 10:39:45;;;;;;;7.38;2.13;;;19.10;99.90;;;;;;4911313;29;20485;-89
2022/04/09 10:42:46;;;;;;;3.53;1.40;;;19.10;99.90;;;;;;4906616;29;20036;-90
2022/04/09 10:45:15;;;;;;;11.20;1.45;;;18.90;99.90;;;;;;4889774;29;20049;-90
2022/04/09 10:48:10;;;;;;;6.30;1.83;;;18.80;99.90;;;;;;4910508;29;20036;-89
2022/04/09 10:50:56;;;;;;;8.32;3.90;;;18.90;99.90;;;;;;4909908;29;20040;-89
2022/04/09 10:53:28;;;;;;;6.45;1.52;;;18.90;99.90;;;;;;4908547;29;20071;-93
2022/04/09 10:56:17;;;;;;;17.92;2.17;;;19.00;99.90;;;;;;4894314;29;20036;-91
2022/04/09 10:59:29;;;;;;;3.38;1.33;;;19.10;99.90;;;;;;4908346;29;20127;-90
2022/04/09 11:01:57;;;;;;;12.60;1.73;;;19.20;99.90;;;;;;4909351;29;20027;-90
2022/04/09 11:04:36;;;;;;;7.72;1.92;;;19.00;99.90;;;;;;4894810;29;20135;-89
2022/04/09 11:07:23;;;;;;;9.75;1.63;;;18.90;99.90;;;;;;4908268;29;20040;-89
2022/04/09 11:09:57;;;;;;;5.75;1.48;;;18.80;99.90;;;;;;4911416;29;20038;-91
2022/04/09 11:12:30;;;;;;;3.65;1.42;;;18.80;99.90;;;;;;4921548;29;20074;-90
2022/04/09 11:15:00;;;;;;;16.00;2.97;;;18.70;99.90;;;;;;4921240;29;20075;-93
2022/04/09 11:17:34;;;;;;;5.53;1.40;;;18.70;99.90;;;;;;4905631;29;20056;-91
2022/04/09 11:20:02;;;;;;;12.18;2.10;;;18.60;99.90;;;;;;4920859;29;20035;-90
2022/04/09 11:22:34;;;;;;;3.03;1.73;;;18.50;99.90;;;;;;4905049;29;20083;-90
2022/04/09 11:25:03;;;;;;;10.73;2.95;;;18.50;99.90;;;;;;4920745;29;20042;-91
2022/04/09 11:27:30;;;;;;;9.38;1.55;;;18.60;99.90;;;;;;4905060;29;20023;-89
2022/04/09 11:29:57;;;;;;;10.20;1.70;;;18.80;99.90;;;;;;4915360;29;20031;-90
2022/04/09 11:32:25;;;;;;;7.55;1.92;;;18.90;99.90;;;;;;4895062;29;20063;-90
2022/04/09 11:34:55;;;;;;;8.35;1.90;;;19.00;99.90;;;;;;4907860;29;20020;-89
2022/04/09 11:37:33;;;;;;;6.68;1.52;;;19.00;99.90;;;;;;4895300;29;20115;-90
2022/04/09 11:40:06;;;;;;;13.38;2.10;;;19.00;99.90;;;;;;4895843;29;20059;-90
2022/04/09 11:42:48;;;;;;;8.05;2.17;;;19.00;99.90;;;;;;4895060;29;20024;-89
2022/04/09 11:45:19;;;;;;;11.05;2.78;;;18.80;99.90;;;;;;4908731;29;20031;-90
2022/04/09 11:47:47;;;;;;;10.05;1.70;;;18.80;99.90;;;;;;4905610;29;20546;-89
2022/04/09 11:50:41;;;;;;;12.10;2.28;;;18.80;99.90;;;;;;4898198;29;20028;-89
2022/04/09 11:53:15;;;;;;;4.53;1.83;;;18.90;99.90;;;;;;4920296;29;20036;-93
2022/04/09 11:55:43;;;;;;;4.88;1.42;;;18.80;99.90;;;;;;4920763;29;20036;-91
2022/04/09 11:58:19;;;;;;;6.45;1.83;;;18.80;99.90;;;;;;4904918;29;20055;-91
2022/04/09 12:00:47;;;;;;;13.00;2.10;;;18.80;99.90;;;;;;4920702;29;20042;-89
2022/04/09 12:03:15;;;;;;;11.55;2.28;;;18.90;99.90;;;;;;4905586;29;20039;-90
2022/04/09 12:05:47;;;;;;;13.68;1.80;;;18.80;99.90;;;;;;4906167;29;20135;-91
2022/04/09 12:08:18;;;;;;;6.63;1.55;;;18.90;99.90;;;;;;4906260;29;20508;-92
2022/04/09 15:07:11;;;;;;;8.20;1.98;;;18.60;99.90;;;;;;6006660;23;21235;31
2022/04/09 15:09:39;;;;;;;6.38;2.15;;;18.70;99.90;;;;;;4874033;29;20077;-92
2022/04/09 15:12:15;;;;;;;4.95;1.83;;;18.60;99.90;;;;;;4873104;29;20049;-92
2022/04/09 15:14:42;;;;;;;6.15;1.45;;;18.60;99.90;;;;;;4868046;29;20049;-88
2022/04/09 15:36:29;;;;;;;6.43;1.85;;;18.70;99.90;;;;;;4887543;29;20061;-94
2022/04/09 15:38:55;;;;;;;3.78;1.50;;;18.70;99.90;;;;;;4869214;29;20037;-94
2022/04/09 15:41:23;;;;;;;3.70;1.70;;;18.70;99.90;;;;;;4868405;29;20475;-93
2022/04/09 15:43:49;;;;;;;11.85;2.13;;;18.70;99.90;;;;;;4871592;29;20033;-93
2022/04/09 15:46:16;;;;;;;8.00;1.85;;;18.70;99.90;;;;;;4869832;29;20036;-94
2022/04/09 15:48:45;;;;;;;13.25;1.70;;;18.70;99.90;;;;;;4870486;29;20039;-94
2022/04/09 15:51:14;;;;;;;7.43;2.05;;;18.70;99.90;;;;;;4873553;29;20033;-93
2022/04/09 15:53:41;;;;;;;8.70;1.13;;;18.70;99.90;;;;;;4887080;23;20052;-93
2022/04/09 15:56:49;;;;;;;3.55;1.63;;;18.60;99.90;;;;;;4884897;29;20032;-96
2022/04/09 15:59:37;;;;;;;6.05;1.80;;;18.60;99.90;;;;;;4869237;29;20033;-94
2022/04/09 16:02:34;;;;;;;;;;;;;;;;;;;;;
2022/04/09 16:05:07;;;;;;;6.63;1.77;;;18.60;99.90;;;;;;4881328;29;20120;-95
2022/04/09 16:07:33;;;;;;;12.27;2.03;;;18.50;99.90;;;;;;4864530;29;20489;-95
2022/04/09 16:10:05;;;;;;;10.65;2.95;;;18.30;99.90;;;;;;4864247;29;20033;-95
2022/04/09 16:12:32;;;;;;;11.40;2.38;;;18.30;99.90;;;;;;4864032;29;20064;-94
2022/04/09 16:14:59;;;;;;;13.98;3.30;;;18.30;99.90;;;;;;4864543;29;20029;-95
2022/04/09 16:17:26;;;;;;;6.93;2.88;;;18.30;99.90;;;;;;4867281;29;20029;-94